Time;durP1;ratioP1;P1;durP2;ratioP2;P2;SDS_P1;SDS_P2;PMS_P1;PMS_P2;Temp;Humidity;BMP_temperature;BMP_pressure;BME280_temperature;BME280_humidity;BME280_pressure;Samples;Min_cycle;Max_cycle;Signal;HPM_P1;HPM_P2
2022/09/10 00:01:09;;;;;;;0.40;0.40;;;13.90;99.90;;;;;;5033428;28;20981;-65
2022/09/10 00:03:57;;;;;;;0.40;0.40;;;13.90;99.90;;;;;;5033857;28;20543;-65
2022/09/10 00:06:47;;;;;;;0.40;0.40;;;13.80;99.90;;;;;;5033908;28;20516;-67
2022/09/10 00:09:35;;;;;;;0.40;0.40;;;13.80;99.90;;;;;;5033249;28;20429;-66
2022/09/10 00:12:23;;;;;;;0.40;0.40;;;13.80;99.90;;;;;;5033336;28;20441;-65
2022/09/10 00:15:12;;;;;;;0.40;0.40;;;13.80;99.90;;;;;;5032819;28;20426;-65
2022/09/10 00:18:00;;;;;;;0.40;0.40;;;13.70;99.90;;;;;;5034298;28;20425;-64
2022/09/10 00:20:51;;;;;;;0.40;0.40;;;13.70;99.90;;;;;;5033246;28;20973;-65
2022/09/10 00:23:44;;;;;;;0.40;0.40;;;13.60;99.90;;;;;;5033135;28;20445;-67
2022/09/10 00:26:36;;;;;;;0.40;0.40;;;13.60;99.90;;;;;;5033347;28;20507;-66
2022/09/10 00:29:25;;;;;;;0.90;0.90;;;13.50;99.90;;;;;;5033131;28;20421;-65
2022/09/10 00:32:13;;;;;;;0.40;0.40;;;13.50;99.90;;;;;;5033541;28;20952;-66
2022/09/10 00:35:01;;;;;;;0.40;0.40;;;13.50;99.90;;;;;;5034282;28;20434;-67
2022/09/10 00:37:49;;;;;;;0.40;0.40;;;13.50;99.90;;;;;;5034935;28;21080;-66
2022/09/10 00:40:39;;;;;;;0.40;0.40;;;13.40;99.90;;;;;;5033448;28;20844;-67
2022/09/10 00:43:45;;;;;;;0.40;0.40;;;13.40;99.90;;;;;;5034312;28;20447;-66
2022/09/10 00:46:38;;;;;;;0.40;0.40;;;13.40;99.90;;;;;;5033409;28;20432;-66
2022/09/10 00:49:32;;;;;;;0.50;0.50;;;13.40;99.90;;;;;;5033896;28;20437;-67
2022/09/10 00:52:20;;;;;;;0.40;0.40;;;13.30;99.90;;;;;;5033020;28;20423;-66
2022/09/10 00:55:09;;;;;;;0.40;0.40;;;13.30;99.90;;;;;;5033678;28;20782;-65
2022/09/10 00:58:00;;;;;;;0.40;0.40;;;13.30;99.90;;;;;;5033720;28;20864;-66
2022/09/10 01:00:48;;;;;;;0.40;0.40;;;13.20;99.90;;;;;;5034218;28;20491;-66
2022/09/10 01:03:38;;;;;;;0.40;0.40;;;13.20;99.90;;;;;;5048444;28;20504;-67
2022/09/10 01:06:26;;;;;;;0.40;0.40;;;13.20;99.90;;;;;;5048508;28;20425;-67
2022/09/10 01:09:15;;;;;;;0.50;0.50;;;13.20;99.90;;;;;;5048098;28;20429;-65
2022/09/10 01:12:15;;;;;;;0.40;0.40;;;13.20;99.90;;;;;;5050117;28;21005;-66
2022/09/10 01:15:14;;;;;;;0.40;0.40;;;13.20;99.90;;;;;;5049227;28;20427;-66
2022/09/10 01:18:30;;;;;;;0.40;0.40;;;13.10;99.90;;;;;;5049611;28;20433;-66
2022/09/10 01:21:24;;;;;;;0.40;0.40;;;13.10;99.90;;;;;;5050628;28;20957;-67
2022/09/10 01:24:50;;;;;;;0.40;0.40;;;13.10;99.90;;;;;;5069262;28;20976;-66
2022/09/10 01:27:43;;;;;;;0.50;0.50;;;13.10;99.90;;;;;;5073863;28;20503;-66
2022/09/10 01:30:36;;;;;;;0.40;0.40;;;13.00;99.90;;;;;;5073696;28;20423;-66
2022/09/10 01:33:32;;;;;;;0.40;0.40;;;13.00;99.90;;;;;;5074731;28;20447;-66
2022/09/10 01:36:25;;;;;;;0.40;0.40;;;13.00;99.90;;;;;;5061382;28;20451;-66
2022/09/10 01:39:15;;;;;;;0.50;0.50;;;12.90;99.90;;;;;;5058948;28;20452;-66
2022/09/10 01:42:03;;;;;;;0.40;0.40;;;12.90;99.90;;;;;;5059299;28;20464;-66
2022/09/10 01:44:56;;;;;;;0.40;0.40;;;12.90;99.90;;;;;;5058274;28;20819;-66
2022/09/10 01:48:15;;;;;;;0.40;0.40;;;12.90;99.90;;;;;;5057588;28;20980;-66
2022/09/10 01:51:10;;;;;;;0.50;0.50;;;12.90;99.90;;;;;;5035593;28;20428;-65
2022/09/10 01:54:13;;;;;;;0.40;0.40;;;12.80;99.90;;;;;;5058019;28;20451;-67
2022/09/10 01:57:07;;;;;;;0.40;0.40;;;12.80;99.90;;;;;;5056642;28;20940;-65
2022/09/10 02:00:05;;;;;;;0.40;0.40;;;12.80;99.90;;;;;;5058266;28;20814;-66
2022/09/10 02:02:58;;;;;;;0.40;0.40;;;12.80;99.90;;;;;;5056882;28;20480;-66
2022/09/10 02:05:52;;;;;;;0.40;0.40;;;12.80;99.90;;;;;;5058359;28;20428;-66
2022/09/10 02:08:43;;;;;;;0.50;0.50;;;12.80;99.90;;;;;;5058038;28;20567;-67
2022/09/10 02:11:42;;;;;;;0.50;0.50;;;12.90;99.90;;;;;;5057676;28;20412;-66
2022/09/10 02:14:30;;;;;;;0.40;0.40;;;12.80;99.90;;;;;;5057706;28;20436;-66
2022/09/10 02:17:21;;;;;;;0.40;0.40;;;12.80;99.90;;;;;;5056499;28;20956;-68
2022/09/10 02:20:13;;;;;;;0.40;0.40;;;12.80;99.90;;;;;;5057431;28;20427;-67
2022/09/10 02:23:02;;;;;;;0.50;0.50;;;12.80;99.90;;;;;;5057576;28;20454;-67
2022/09/10 02:25:50;;;;;;;0.40;0.40;;;12.70;99.90;;;;;;5056131;28;20426;-67
2022/09/10 02:28:38;;;;;;;0.50;0.50;;;12.80;99.90;;;;;;5057515;28;20429;-66
2022/09/10 02:31:27;;;;;;;0.50;0.50;;;12.70;99.90;;;;;;5056173;28;20461;-66
2022/09/10 02:34:16;;;;;;;0.40;0.40;;;12.80;99.90;;;;;;5057075;28;20444;-67
2022/09/10 02:37:04;;;;;;;0.40;0.40;;;12.70;99.90;;;;;;5055709;28;20424;-65
2022/09/10 02:39:53;;;;;;;0.40;0.40;;;12.70;99.90;;;;;;5056520;28;20432;-67
2022/09/10 02:42:45;;;;;;;0.40;0.40;;;12.70;99.90;;;;;;5055995;28;20460;-67
2022/09/10 02:45:33;;;;;;;0.40;0.40;;;12.80;99.90;;;;;;5057225;28;20835;-66
2022/09/10 02:48:21;;;;;;;0.40;0.40;;;12.80;99.90;;;;;;5057173;28;20416;-66
2022/09/10 02:51:11;;;;;;;0.50;0.50;;;12.90;99.90;;;;;;5057129;28;20932;-67
2022/09/10 02:54:00;;;;;;;0.40;0.40;;;12.70;99.90;;;;;;5056986;28;20519;-66
2022/09/10 02:56:48;;;;;;;0.40;0.40;;;12.70;99.90;;;;;;5055698;28;20503;-67
2022/09/10 02:59:36;;;;;;;0.40;0.40;;;12.80;99.90;;;;;;5057132;28;20952;-66
2022/09/10 03:02:24;;;;;;;0.40;0.40;;;12.70;99.90;;;;;;5055258;28;20468;-66
2022/09/10 03:05:12;;;;;;;0.40;0.40;;;12.80;99.90;;;;;;5055725;28;20916;-67
2022/09/10 03:08:02;;;;;;;0.43;0.43;;;12.70;99.90;;;;;;5056704;28;20428;-67
2022/09/10 03:10:50;;;;;;;0.50;0.50;;;12.70;99.90;;;;;;5054830;28;20542;-67
2022/09/10 03:13:39;;;;;;;0.40;0.40;;;12.70;99.90;;;;;;5056453;28;20570;-67
2022/09/10 03:16:27;;;;;;;0.40;0.40;;;12.80;99.90;;;;;;5055845;28;20421;-67
2022/09/10 03:19:16;;;;;;;0.50;0.50;;;12.70;99.90;;;;;;5055913;28;20428;-67
2022/09/10 03:22:04;;;;;;;0.40;0.40;;;12.60;99.90;;;;;;5054726;28;20464;-67
2022/09/10 03:24:53;;;;;;;0.40;0.40;;;12.60;99.90;;;;;;5056581;28;20424;-66
2022/09/10 03:27:41;;;;;;;0.40;0.40;;;12.50;99.90;;;;;;5055777;28;20436;-66
2022/09/10 03:30:30;;;;;;;0.40;0.40;;;12.60;99.90;;;;;;5056341;28;20431;-67
2022/09/10 03:33:20;;;;;;;0.40;0.40;;;12.60;99.90;;;;;;5056095;28;20459;-66
2022/09/10 03:36:09;;;;;;;0.40;0.40;;;12.60;99.90;;;;;;5055197;28;20806;-66
2022/09/10 03:38:58;;;;;;;0.40;0.40;;;12.50;99.90;;;;;;5054704;28;20427;-66
2022/09/10 03:41:48;;;;;;;0.40;0.40;;;12.50;99.90;;;;;;5055924;28;20456;-67
2022/09/10 03:44:36;;;;;;;0.40;0.40;;;12.30;99.90;;;;;;5054812;28;20424;-65
2022/09/10 03:47:24;;;;;;;0.40;0.40;;;12.50;99.90;;;;;;5055692;28;21012;-66
2022/09/10 03:50:12;;;;;;;0.40;0.40;;;12.50;99.90;;;;;;5053718;28;20424;-66
2022/09/10 03:53:02;;;;;;;0.40;0.40;;;12.40;99.90;;;;;;5055663;28;20832;-66
2022/09/10 03:55:54;;;;;;;0.40;0.40;;;12.40;99.90;;;;;;5055810;28;20464;-67
2022/09/10 03:58:43;;;;;;;0.40;0.40;;;12.50;99.90;;;;;;5055785;28;20485;-68
2022/09/10 04:01:32;;;;;;;0.43;0.43;;;12.40;99.90;;;;;;5054266;28;20464;-67
2022/09/10 04:04:20;;;;;;;0.40;0.40;;;12.40;99.90;;;;;;5054416;28;20551;-67
2022/09/10 04:07:09;;;;;;;0.50;0.50;;;12.40;99.90;;;;;;5055509;28;20429;-66
2022/09/10 04:09:57;;;;;;;0.40;0.40;;;12.40;99.90;;;;;;5053839;28;20496;-67
2022/09/10 04:12:45;;;;;;;0.40;0.40;;;12.40;99.90;;;;;;5055497;28;20440;-66
2022/09/10 04:15:35;;;;;;;0.40;0.40;;;12.20;99.90;;;;;;5054105;28;20423;-68
2022/09/10 04:18:25;;;;;;;0.40;0.40;;;12.40;99.90;;;;;;5055749;28;20425;-67
2022/09/10 04:21:13;;;;;;;0.50;0.50;;;12.30;99.90;;;;;;5054552;28;20424;-68
2022/09/10 04:24:01;;;;;;;0.40;0.40;;;12.40;99.90;;;;;;5053587;28;20448;-66
2022/09/10 04:26:50;;;;;;;0.40;0.40;;;12.40;99.90;;;;;;5055137;28;20425;-66
2022/09/10 04:29:38;;;;;;;0.40;0.40;;;12.50;99.90;;;;;;5055331;28;20435;-68
2022/09/10 04:32:27;;;;;;;0.40;0.40;;;12.40;99.90;;;;;;5054916;28;20443;-67
2022/09/10 04:35:16;;;;;;;0.40;0.40;;;12.40;99.90;;;;;;5055195;28;20801;-67
2022/09/10 04:38:04;;;;;;;0.43;0.43;;;12.40;99.90;;;;;;5054516;28;20432;-66
2022/09/10 04:40:52;;;;;;;0.40;0.40;;;12.30;99.90;;;;;;5054594;28;20486;-67
2022/09/10 04:43:40;;;;;;;0.40;0.40;;;12.30;99.90;;;;;;5054647;28;20482;-67
2022/09/10 04:46:28;;;;;;;0.40;0.40;;;12.30;99.90;;;;;;5053353;28;20427;-66
2022/09/10 04:49:17;;;;;;;0.50;0.50;;;12.30;99.90;;;;;;5054302;28;20450;-65
2022/09/10 04:52:05;;;;;;;0.40;0.40;;;12.30;99.90;;;;;;5054862;28;20423;-67
2022/09/10 04:54:53;;;;;;;0.50;0.50;;;12.30;99.90;;;;;;5053840;28;20430;-66
2022/09/10 04:57:42;;;;;;;0.40;0.40;;;12.30;99.90;;;;;;5054983;28;20428;-67
2022/09/10 05:00:30;;;;;;;0.40;0.40;;;12.30;99.90;;;;;;5054069;28;20436;-66
2022/09/10 05:03:18;;;;;;;0.40;0.40;;;12.30;99.90;;;;;;5054790;28;20468;-67
2022/09/10 05:06:07;;;;;;;0.40;0.40;;;12.50;99.90;;;;;;5054499;28;20428;-66
2022/09/10 05:08:55;;;;;;;0.40;0.40;;;12.40;99.90;;;;;;5054247;28;20424;-66
2022/09/10 05:11:45;;;;;;;0.40;0.40;;;12.40;99.90;;;;;;5053454;28;20420;-67
2022/09/10 05:14:33;;;;;;;0.40;0.40;;;12.50;99.90;;;;;;5053668;28;20431;-67
2022/09/10 05:17:21;;;;;;;0.40;0.40;;;12.50;99.90;;;;;;5054197;28;21013;-66
2022/09/10 05:20:10;;;;;;;0.40;0.40;;;12.50;99.90;;;;;;5052458;28;20435;-66
2022/09/10 05:22:59;;;;;;;0.40;0.40;;;12.50;99.90;;;;;;5054515;28;20468;-67
2022/09/10 05:25:48;;;;;;;0.40;0.40;;;12.40;99.90;;;;;;5053304;28;20965;-66
2022/09/10 05:28:36;;;;;;;0.40;0.40;;;12.60;99.90;;;;;;5054436;28;20515;-67
2022/09/10 05:31:24;;;;;;;0.40;0.40;;;12.60;99.90;;;;;;5052851;28;20420;-66
2022/09/10 05:34:12;;;;;;;0.40;0.40;;;12.70;99.90;;;;;;5054558;28;20527;-67
2022/09/10 05:37:00;;;;;;;0.40;0.40;;;12.70;99.90;;;;;;5053719;28;20424;-67
2022/09/10 05:39:50;;;;;;;0.40;0.40;;;12.80;99.90;;;;;;5052486;28;20431;-67
2022/09/10 05:42:38;;;;;;;0.40;0.40;;;12.70;99.90;;;;;;5054206;28;21007;-67
2022/09/10 05:45:26;;;;;;;0.40;0.40;;;12.80;99.90;;;;;;5054510;28;20523;-66
2022/09/10 05:48:14;;;;;;;0.40;0.40;;;12.90;99.90;;;;;;5053702;28;20616;-66
2022/09/10 05:51:03;;;;;;;0.43;0.43;;;13.10;99.90;;;;;;5053114;28;20517;-67
2022/09/10 05:53:51;;;;;;;0.40;0.40;;;13.30;99.90;;;;;;5053361;28;20480;-67
2022/09/10 05:56:40;;;;;;;0.40;0.40;;;13.30;99.90;;;;;;5052238;28;20416;-67
2022/09/10 05:59:28;;;;;;;0.40;0.40;;;14.30;99.90;;;;;;5052881;28;20424;-68
2022/09/10 06:02:18;;;;;;;0.40;0.40;;;13.40;99.90;;;;;;5033153;28;20456;-67
2022/09/10 06:05:11;;;;;;;0.40;0.40;;;13.50;99.90;;;;;;5029811;28;20598;-67
2022/09/10 06:07:59;;;;;;;0.50;0.50;;;13.50;99.90;;;;;;5032406;28;20963;-67
2022/09/10 06:10:57;;;;;;;0.80;0.60;;;13.70;99.90;;;;;;5031956;28;20811;-67
2022/09/10 06:13:47;;;;;;;0.40;0.40;;;13.70;99.90;;;;;;5036604;28;20445;-67
2022/09/10 06:16:35;;;;;;;0.40;0.40;;;13.70;99.90;;;;;;5036263;28;20439;-68
2022/09/10 06:19:23;;;;;;;0.50;0.50;;;13.80;99.90;;;;;;5035189;28;20444;-68
2022/09/10 06:22:12;;;;;;;0.40;0.40;;;14.00;99.90;;;;;;5015626;28;20432;-68
2022/09/10 06:25:00;;;;;;;0.40;0.40;;;14.00;99.90;;;;;;5013799;28;20541;-68
2022/09/10 06:27:48;;;;;;;0.40;0.40;;;14.20;99.90;;;;;;5014089;28;20418;-69
2022/09/10 06:30:37;;;;;;;0.40;0.40;;;14.20;99.90;;;;;;5014557;28;20422;-68
2022/09/10 06:33:26;;;;;;;0.40;0.40;;;14.30;99.90;;;;;;5015506;28;20450;-69
2022/09/10 06:36:15;;;;;;;0.40;0.40;;;14.30;99.90;;;;;;5013670;28;20818;-69
2022/09/10 06:39:03;;;;;;;0.40;0.40;;;14.50;99.90;;;;;;5014159;28;20438;-69
2022/09/10 06:41:52;;;;;;;0.40;0.40;;;14.50;99.90;;;;;;5014142;28;20445;-72
2022/09/10 06:44:40;;;;;;;0.40;0.40;;;14.60;99.90;;;;;;5014146;28;20471;-72
2022/09/10 06:47:29;;;;;;;0.40;0.40;;;14.70;99.90;;;;;;5013398;28;20453;-69
2022/09/10 06:50:37;;;;;;;0.40;0.40;;;14.80;99.90;;;;;;5012933;28;20433;-68
2022/09/10 06:53:27;;;;;;;0.40;0.40;;;14.90;99.90;;;;;;5013038;28;20959;-68
2022/09/10 06:56:16;;;;;;;0.40;0.40;;;15.00;99.90;;;;;;5015327;28;20434;-69
2022/09/10 06:59:04;;;;;;;0.40;0.40;;;15.20;99.90;;;;;;5033088;28;20457;-69
2022/09/10 07:01:53;;;;;;;0.40;0.40;;;15.20;99.90;;;;;;5032937;28;20429;-71
2022/09/10 07:04:43;;;;;;;0.40;0.40;;;15.30;99.90;;;;;;5032926;28;21114;-68
2022/09/10 07:07:31;;;;;;;0.40;0.40;;;15.40;99.90;;;;;;5033317;28;20443;-68
2022/09/10 07:10:19;;;;;;;0.60;0.47;;;15.50;99.90;;;;;;5032530;28;20428;-70
2022/09/10 07:13:07;;;;;;;0.57;0.57;;;15.60;99.90;;;;;;5032775;28;20982;-70
2022/09/10 07:15:55;;;;;;;0.50;0.50;;;15.80;99.90;;;;;;5032634;28;20960;-69
2022/09/10 07:18:43;;;;;;;0.40;0.40;;;15.70;99.90;;;;;;5032374;28;20425;-68
2022/09/10 07:21:36;;;;;;;0.40;0.40;;;15.80;99.90;;;;;;5032780;28;20459;-69
2022/09/10 07:24:24;;;;;;;0.40;0.40;;;16.00;99.90;;;;;;5032084;28;20468;-68
2022/09/10 07:27:12;;;;;;;0.50;0.50;;;16.00;99.90;;;;;;5032242;28;20432;-69
2022/09/10 07:30:00;;;;;;;0.40;0.40;;;16.10;99.90;;;;;;5032092;28;20425;-70
2022/09/10 07:32:49;;;;;;;0.40;0.40;;;16.10;99.90;;;;;;5032324;28;20225;-70
2022/09/10 07:35:38;;;;;;;0.40;0.40;;;16.20;99.90;;;;;;5032184;28;20429;-69
2022/09/10 07:38:27;;;;;;;0.40;0.40;;;16.50;99.90;;;;;;5032195;28;20432;-69
2022/09/10 07:41:15;;;;;;;0.40;0.40;;;16.60;99.90;;;;;;5031783;28;20418;-70
2022/09/10 07:44:04;;;;;;;0.40;0.40;;;16.60;99.90;;;;;;5031775;28;20213;-71
2022/09/10 07:46:52;;;;;;;0.40;0.40;;;16.70;99.90;;;;;;5032273;28;20229;-69
2022/09/10 07:49:40;;;;;;;0.40;0.40;;;16.90;99.90;;;;;;5031944;28;20425;-70
2022/09/10 07:52:28;;;;;;;0.40;0.40;;;16.90;99.90;;;;;;5031861;28;20229;-68
2022/09/10 07:55:18;;;;;;;0.40;0.40;;;17.00;99.90;;;;;;5031964;28;20198;-68
2022/09/10 07:58:06;;;;;;;0.40;0.40;;;17.10;99.90;;;;;;5031752;28;20231;-70
2022/09/10 08:00:54;;;;;;;0.40;0.40;;;17.20;99.90;;;;;;5032366;28;20261;-70
2022/09/10 08:03:42;;;;;;;0.40;0.40;;;17.30;99.90;;;;;;5032051;28;20240;-69
2022/09/10 08:06:31;;;;;;;0.40;0.40;;;17.40;99.90;;;;;;5032246;28;20208;-69
2022/09/10 08:09:19;;;;;;;1.03;0.63;;;17.40;99.90;;;;;;5031885;28;20671;-68
2022/09/10 08:12:08;;;;;;;0.55;0.55;;;17.50;99.90;;;;;;5032155;28;20425;-67
2022/09/10 08:14:57;;;;;;;0.40;0.40;;;17.60;99.90;;;;;;5032028;28;20194;-68
2022/09/10 08:17:45;;;;;;;0.40;0.40;;;17.80;99.90;;;;;;5032042;28;20202;-68
2022/09/10 08:20:33;;;;;;;0.40;0.40;;;17.90;99.90;;;;;;5031610;28;20225;-69
2022/09/10 08:23:21;;;;;;;0.40;0.40;;;17.90;99.90;;;;;;5032106;28;20222;-71
2022/09/10 08:26:10;;;;;;;0.40;0.40;;;18.10;99.90;;;;;;5032037;28;20198;-71
2022/09/10 08:29:01;;;;;;;0.40;0.40;;;18.10;99.90;;;;;;5031819;28;20210;-68
2022/09/10 08:31:49;;;;;;;0.40;0.40;;;18.20;99.90;;;;;;5031486;28;20198;-68
2022/09/10 08:34:37;;;;;;;0.40;0.40;;;;;;;;;;5030517;28;20201;-69
2022/09/10 08:37:29;;;;;;;0.40;0.40;;;18.30;99.90;;;;;;5031823;28;20206;-71
2022/09/10 08:40:18;;;;;;;0.40;0.40;;;18.30;99.90;;;;;;5031741;28;20679;-70
2022/09/10 08:43:07;;;;;;;0.40;0.40;;;18.40;99.90;;;;;;5031169;28;20226;-68
2022/09/10 08:45:58;;;;;;;0.40;0.40;;;18.60;99.90;;;;;;5031490;28;20286;-70
2022/09/10 08:48:49;;;;;;;0.40;0.40;;;18.80;99.90;;;;;;5031097;28;20213;-70
2022/09/10 08:51:43;;;;;;;0.40;0.40;;;19.00;99.90;;;;;;5030442;28;20202;-72
2022/09/10 08:54:37;;;;;;;0.55;0.55;;;19.20;99.90;;;;;;5030757;28;20204;-69
2022/09/10 08:57:31;;;;;;;0.40;0.40;;;19.40;99.90;;;;;;5031263;28;20198;-68
2022/09/10 09:00:21;;;;;;;0.40;0.40;;;19.50;99.90;;;;;;5030465;28;20193;-69
2022/09/10 09:03:18;;;;;;;0.40;0.40;;;19.50;99.90;;;;;;5030631;28;20229;-72
2022/09/10 09:06:14;;;;;;;0.40;0.40;;;19.50;99.90;;;;;;5031108;28;20255;-69
2022/09/10 09:09:04;;;;;;;0.40;0.40;;;19.30;99.90;;;;;;5031798;28;20202;-69
2022/09/10 09:12:00;;;;;;;0.40;0.40;;;18.80;99.90;;;;;;5030840;28;20202;-72
2022/09/10 09:15:01;;;;;;;0.40;0.40;;;19.30;99.90;;;;;;5030796;28;20205;-71
2022/09/10 09:18:10;;;;;;;0.40;0.40;;;19.40;99.90;;;;;;5030859;28;20205;-70
2022/09/10 09:21:08;;;;;;;0.40;0.40;;;19.60;99.90;;;;;;5030375;28;20201;-68
2022/09/10 09:23:57;;;;;;;0.60;0.60;;;19.70;99.90;;;;;;5030305;28;20224;-68
2022/09/10 09:27:08;;;;;;;0.40;0.40;;;19.80;99.90;;;;;;5031397;28;20213;-69
2022/09/10 09:30:01;;;;;;;0.60;0.60;;;20.00;99.90;;;;;;5030108;28;20217;-70
2022/09/10 09:32:50;;;;;;;0.40;0.40;;;19.80;99.90;;;;;;5030571;28;20228;-72
2022/09/10 09:35:46;;;;;;;0.40;0.40;;;19.90;99.90;;;;;;5031084;28;20206;-68
2022/09/10 09:38:39;;;;;;;0.40;0.40;;;20.00;99.90;;;;;;5031231;28;20208;-69
2022/09/10 09:41:34;;;;;;;0.40;0.40;;;20.20;99.90;;;;;;5032695;28;20655;-66
2022/09/10 09:44:27;;;;;;;0.40;0.40;;;20.30;99.90;;;;;;5032669;28;20226;-66
2022/09/10 09:47:15;;;;;;;0.40;0.40;;;20.30;99.90;;;;;;5032876;28;20205;-68
2022/09/10 09:50:03;;;;;;;0.40;0.40;;;20.20;99.90;;;;;;5035121;28;20344;-67
2022/09/10 09:52:55;;;;;;;0.98;0.52;;;20.30;99.90;;;;;;5035947;28;20229;-68
2022/09/10 09:55:47;;;;;;;0.50;0.50;;;20.50;99.90;;;;;;5035462;28;20198;-67
2022/09/10 09:58:36;;;;;;;0.40;0.40;;;20.70;99.90;;;;;;5015526;28;20198;-67
2022/09/10 10:01:25;;;;;;;0.50;0.50;;;21.00;99.90;;;;;;5016401;28;20671;-67
2022/09/10 10:04:21;;;;;;;0.40;0.40;;;21.20;99.90;;;;;;5016766;28;20235;-66
2022/09/10 10:07:10;;;;;;;0.40;0.40;;;21.40;99.90;;;;;;5016504;28;20207;-67
2022/09/10 10:10:00;;;;;;;0.40;0.40;;;21.60;99.90;;;;;;5016370;28;20205;-65
2022/09/10 10:12:51;;;;;;;0.40;0.40;;;21.80;99.90;;;;;;5017320;28;20223;-67
2022/09/10 10:15:41;;;;;;;0.40;0.40;;;21.80;99.90;;;;;;5016233;28;20683;-66
2022/09/10 10:18:33;;;;;;;0.40;0.40;;;21.70;99.90;;;;;;5017083;28;20207;-68
2022/09/10 10:21:30;;;;;;;0.40;0.40;;;21.40;99.90;;;;;;5016610;28;20202;-67
2022/09/10 10:24:30;;;;;;;0.40;0.40;;;21.40;99.90;;;;;;5016396;28;20223;-67
2022/09/10 10:27:31;;;;;;;0.50;0.50;;;21.50;99.90;;;;;;5016120;28;20199;-66
2022/09/10 10:30:26;;;;;;;1.20;1.20;;;21.40;99.90;;;;;;5014500;28;20230;-67
2022/09/10 10:33:18;;;;;;;0.40;0.40;;;21.30;99.90;;;;;;5015365;28;20223;-67
2022/09/10 10:36:14;;;;;;;0.60;0.60;;;21.30;99.90;;;;;;5016199;28;20246;-68
2022/09/10 10:39:08;;;;;;;0.60;0.60;;;21.20;99.90;;;;;;5014631;28;20214;-69
2022/09/10 10:42:03;;;;;;;0.40;0.40;;;21.00;99.90;;;;;;5015307;28;20200;-66
2022/09/10 10:45:04;;;;;;;0.40;0.40;;;20.80;99.90;;;;;;5014214;28;20369;-68
2022/09/10 10:48:01;;;;;;;0.40;0.40;;;20.50;99.90;;;;;;5014110;28;20671;-69
2022/09/10 10:50:58;;;;;;;0.40;0.40;;;20.40;99.90;;;;;;5013617;28;20664;-70
2022/09/10 10:54:13;;;;;;;0.40;0.40;;;20.40;99.90;;;;;;5013090;28;20226;-69
2022/09/10 10:57:11;;;;;;;0.95;0.70;;;20.40;99.90;;;;;;5020932;28;20200;-72
2022/09/10 11:00:06;;;;;;;0.40;0.40;;;20.40;99.90;;;;;;5032586;28;20202;-69
2022/09/10 11:03:04;;;;;;;0.40;0.40;;;20.40;99.90;;;;;;5033342;28;20230;-71
2022/09/10 11:05:57;;;;;;;0.40;0.40;;;20.50;99.90;;;;;;5033817;28;20225;-66
2022/09/10 11:08:50;;;;;;;0.40;0.40;;;20.60;99.90;;;;;;5034086;28;20202;-68
2022/09/10 11:11:48;;;;;;;0.40;0.40;;;20.90;99.90;;;;;;5032898;28;20198;-68
2022/09/10 11:14:43;;;;;;;0.40;0.40;;;20.70;99.90;;;;;;5032485;28;20208;-70
2022/09/10 11:17:39;;;;;;;0.50;0.50;;;20.50;99.90;;;;;;5032692;28;20785;-69
2022/09/10 11:20:33;;;;;;;0.60;0.60;;;20.50;99.90;;;;;;5031983;28;20209;-72
2022/09/10 11:23:28;;;;;;;1.08;1.08;;;20.60;99.90;;;;;;5032407;28;20224;-70
2022/09/10 11:26:22;;;;;;;0.40;0.40;;;20.50;99.90;;;;;;5032453;28;20590;-70
2022/09/10 11:29:26;;;;;;;0.40;0.40;;;20.50;99.90;;;;;;5032247;28;20347;-66
2022/09/10 11:32:21;;;;;;;0.40;0.40;;;20.50;99.90;;;;;;5032533;28;20208;-67
2022/09/10 11:35:20;;;;;;;0.60;0.60;;;20.50;99.90;;;;;;5032897;28;20280;-67
2022/09/10 11:38:19;;;;;;;0.40;0.40;;;20.70;99.90;;;;;;5033386;28;20198;-68
2022/09/10 11:41:14;;;;;;;0.40;0.40;;;20.60;99.90;;;;;;5031907;28;20209;-68
2022/09/10 11:44:13;;;;;;;0.40;0.40;;;20.50;99.90;;;;;;5032054;28;20710;-68
2022/09/10 11:47:06;;;;;;;0.40;0.40;;;20.40;99.90;;;;;;5032053;28;20226;-72
2022/09/10 11:50:00;;;;;;;0.80;0.68;;;20.30;99.90;;;;;;5031661;28;20210;-71
2022/09/10 11:52:49;;;;;;;0.95;0.80;;;20.20;99.90;;;;;;5031760;28;20249;-71
2022/09/10 11:56:05;;;;;;;3.92;1.73;;;20.20;99.90;;;;;;5031960;28;20865;-71
2022/09/10 11:59:03;;;;;;;0.40;0.40;;;20.20;99.90;;;;;;5013079;28;20584;-70
2022/09/10 12:02:15;;;;;;;0.40;0.40;;;20.20;99.90;;;;;;5012463;28;20604;-71
2022/09/10 12:05:14;;;;;;;0.40;0.40;;;20.40;99.90;;;;;;5011890;28;20194;-70
2022/09/10 12:08:12;;;;;;;0.40;0.40;;;20.50;99.90;;;;;;5012538;28;20222;-69
2022/09/10 12:11:12;;;;;;;0.40;0.40;;;20.70;99.90;;;;;;5011428;28;20207;-69
2022/09/10 12:14:06;;;;;;;0.40;0.40;;;20.70;99.90;;;;;;5012899;28;20219;-65
2022/09/10 12:16:58;;;;;;;0.40;0.40;;;20.80;99.90;;;;;;5012179;28;20209;-67
2022/09/10 12:19:49;;;;;;;0.40;0.40;;;20.90;99.90;;;;;;5011933;28;20207;-68
2022/09/10 12:22:40;;;;;;;0.40;0.40;;;20.90;99.90;;;;;;5012406;28;20226;-67
2022/09/10 12:25:30;;;;;;;0.40;0.40;;;21.00;99.90;;;;;;5013280;28;20195;-66
2022/09/10 12:29:01;;;;;;;0.40;0.40;;;21.00;99.90;;;;;;5013058;28;20680;-67
2022/09/10 12:32:29;;;;;;;0.40;0.40;;;21.30;99.90;;;;;;5014162;28;20202;-67
2022/09/10 12:35:46;;;;;;;0.60;0.60;;;21.70;99.90;;;;;;5015262;28;20213;-63
2022/09/10 12:38:49;;;;;;;0.40;0.40;;;22.20;99.90;;;;;;5014858;28;20260;-65
2022/09/10 12:41:56;;;;;;;0.50;0.50;;;22.40;99.90;;;;;;5013965;28;20202;-65
2022/09/10 12:44:46;;;;;;;0.40;0.40;;;22.70;99.90;;;;;;5014333;28;20285;-66
2022/09/10 12:47:43;;;;;;;1.58;0.50;;;23.30;99.90;;;;;;5013762;28;20229;-67
2022/09/10 12:50:45;;;;;;;0.40;0.40;;;23.70;99.90;;;;;;5013982;28;20203;-66
2022/09/10 12:54:06;;;;;;;0.50;0.50;;;23.80;99.90;;;;;;5013127;28;20226;-67
2022/09/10 12:57:08;;;;;;;0.70;0.70;;;23.90;99.90;;;;;;5020471;28;20198;-65
2022/09/10 13:00:20;;;;;;;0.47;0.47;;;23.90;99.90;;;;;;5033279;28;20220;-66
2022/09/10 13:03:14;;;;;;;0.40;0.40;;;24.10;99.90;;;;;;5032839;28;20225;-65
2022/09/10 13:06:05;;;;;;;0.40;0.40;;;24.30;99.90;;;;;;5032127;28;20214;-66
2022/09/10 13:08:54;;;;;;;0.60;0.60;;;25.30;99.90;;;;;;5032880;28;20557;-66
2022/09/10 13:11:46;;;;;;;0.50;0.50;;;26.40;99.90;;;;;;5031040;28;20210;-65
2022/09/10 13:14:37;;;;;;;0.40;0.40;;;28.10;99.90;;;;;;5031001;28;20206;-65
2022/09/10 13:17:40;;;;;;;0.40;0.40;;;29.00;99.00;;;;;;5030562;28;20197;-65
2022/09/10 13:20:31;;;;;;;0.40;0.40;;;29.60;97.50;;;;;;5031212;28;20221;-67
2022/09/10 13:23:47;;;;;;;0.40;0.40;;;30.30;94.50;;;;;;5035713;28;20214;-66
2022/09/10 13:27:02;;;;;;;0.40;0.40;;;31.40;91.70;;;;;;5035722;28;20300;-65
2022/09/10 13:29:54;;;;;;;0.40;0.40;;;32.30;86.60;;;;;;5034677;28;20212;-66
2022/09/10 13:32:47;;;;;;;0.40;0.40;;;32.80;83.40;;;;;;5034821;28;20214;-65
2022/09/10 13:36:05;;;;;;;0.40;0.40;;;32.80;83.00;;;;;;5035531;28;20205;-65
2022/09/10 13:39:27;;;;;;;0.40;0.40;;;32.30;82.10;;;;;;5035458;28;20202;-65
2022/09/10 13:42:37;;;;;;;0.40;0.40;;;31.20;85.10;;;;;;5034036;28;20558;-65
2022/09/10 13:45:28;;;;;;;0.40;0.40;;;31.10;85.00;;;;;;5034109;28;20220;-65
2022/09/10 13:48:21;;;;;;;0.60;0.60;;;30.60;84.20;;;;;;5033795;28;20229;-68
2022/09/10 13:51:20;;;;;;;1.50;0.77;;;30.60;83.90;;;;;;5033950;28;20202;-66
2022/09/10 13:54:26;;;;;;;0.40;0.40;;;30.30;83.90;;;;;;5033941;28;20248;-66
2022/09/10 13:57:18;;;;;;;0.50;0.50;;;31.00;85.00;;;;;;5035055;28;20671;-66
2022/09/10 14:00:19;;;;;;;0.50;0.50;;;31.80;82.00;;;;;;5033671;28;20193;-67
2022/09/10 14:03:15;;;;;;;0.50;0.50;;;32.20;80.90;;;;;;5034717;28;20729;-67
2022/09/10 14:06:06;;;;;;;0.40;0.40;;;31.90;80.80;;;;;;5033640;28;20210;-67
2022/09/10 14:08:57;;;;;;;0.40;0.40;;;31.20;83.10;;;;;;5034734;28;20206;-66
2022/09/10 14:11:45;;;;;;;0.40;0.40;;;30.70;85.00;;;;;;5034470;28;20222;-66
2022/09/10 14:14:38;;;;;;;1.80;1.70;;;30.60;84.40;;;;;;5033614;28;20596;-67
2022/09/10 14:17:31;;;;;;;0.40;0.40;;;30.60;86.00;;;;;;5034708;28;20194;-67
2022/09/10 14:20:25;;;;;;;0.40;0.40;;;30.40;86.00;;;;;;5033773;28;20227;-66
2022/09/10 14:23:15;;;;;;;0.40;0.40;;;29.50;86.50;;;;;;5033569;28;20217;-66
2022/09/10 14:26:12;;;;;;;0.40;0.40;;;28.40;88.00;;;;;;5032725;28;20198;-66
2022/09/10 14:29:03;;;;;;;0.40;0.40;;;27.30;90.80;;;;;;5034400;28;20198;-68
2022/09/10 14:31:51;;;;;;;0.40;0.40;;;26.00;92.20;;;;;;5036239;28;20202;-68
2022/09/10 14:34:40;;;;;;;0.40;0.40;;;24.80;94.40;;;;;;5035447;28;20209;-67
2022/09/10 14:37:32;;;;;;;0.82;0.50;;;24.10;96.20;;;;;;5036090;28;20198;-68
2022/09/10 14:40:21;;;;;;;0.90;0.90;;;23.60;97.30;;;;;;5036304;28;20198;-66
2022/09/10 14:43:15;;;;;;;0.40;0.40;;;23.10;98.50;;;;;;5037016;28;20333;-65
2022/09/10 14:46:05;;;;;;;0.40;0.40;;;22.80;99.90;;;;;;5036343;28;20202;-66
2022/09/10 14:49:09;;;;;;;0.43;0.43;;;22.50;99.90;;;;;;5036398;28;20317;-66
2022/09/10 14:52:00;;;;;;;0.40;0.40;;;22.40;99.90;;;;;;5035933;28;20285;-65
2022/09/10 14:54:48;;;;;;;0.40;0.40;;;22.30;99.90;;;;;;5036269;28;20201;-66
2022/09/10 14:57:37;;;;;;;0.40;0.40;;;22.60;99.90;;;;;;5035694;28;20660;-67
2022/09/10 15:00:25;;;;;;;0.40;0.40;;;22.50;99.90;;;;;;5035369;28;20206;-66